createdAt,value
2019-01-27T00:01:14.147Z,6.33
2019-01-27T00:03:43.995Z,7.30
2019-01-27T00:06:13.885Z,7.10
2019-01-27T00:08:43.933Z,7.35
2019-01-27T00:11:14.153Z,7.90
2019-01-27T00:13:43.995Z,7.13
2019-01-27T00:16:14.008Z,6.57
2019-01-27T00:18:44.023Z,8.20
2019-01-27T00:21:14.005Z,5.90
2019-01-27T00:23:43.964Z,5.62
2019-01-27T00:26:13.881Z,6.73
2019-01-27T00:28:43.789Z,6.33
2019-01-27T00:31:13.417Z,5.43
2019-01-27T00:33:43.347Z,6.60
2019-01-27T00:36:13.216Z,5.30
2019-01-27T00:38:43.118Z,6.53
2019-01-27T00:41:12.893Z,4.90
2019-01-27T00:43:43.099Z,4.55
2019-01-27T00:46:12.923Z,5.30
2019-01-27T00:48:42.957Z,4.62
2019-01-27T00:51:12.945Z,7.10
2019-01-27T00:53:43.079Z,5.03
2019-01-27T00:56:13.015Z,4.10
2019-01-27T00:58:43.036Z,4.93
2019-01-27T01:01:12.949Z,4.07
2019-01-27T01:03:42.906Z,6.45
2019-01-27T01:06:12.946Z,4.00
2019-01-27T01:08:42.808Z,4.23
2019-01-27T01:11:12.594Z,5.80
2019-01-27T01:13:42.354Z,3.20
2019-01-27T01:16:12.190Z,4.27
2019-01-27T01:18:42.140Z,5.93
2019-01-27T01:21:11.931Z,7.70
2019-01-27T01:23:42.134Z,4.95
2019-01-27T01:26:11.962Z,3.43
2019-01-27T01:28:42.154Z,3.60
2019-01-27T01:31:12.094Z,5.63
2019-01-27T01:33:42.045Z,4.40
2019-01-27T01:36:12.029Z,3.80
2019-01-27T01:38:42.224Z,3.08
2019-01-27T01:41:12.049Z,3.60
2019-01-27T01:43:42.256Z,4.60
2019-01-27T01:46:12.076Z,4.37
2019-01-27T01:48:41.884Z,2.60
2019-01-27T01:51:11.664Z,3.53
2019-01-27T01:53:41.318Z,2.77
2019-01-27T01:56:11.044Z,3.03
2019-01-27T01:58:41.244Z,3.02
2019-01-27T02:01:11.089Z,3.33
2019-01-27T02:03:41.121Z,5.45
2019-01-27T02:06:11.078Z,3.00
2019-01-27T02:08:41.216Z,3.67
2019-01-27T02:11:11.166Z,3.07
2019-01-27T02:13:41.118Z,3.17
2019-01-27T02:16:11.065Z,3.93
2019-01-27T02:18:41.097Z,3.35
2019-01-27T02:21:11.101Z,2.93
2019-01-27T02:23:41.132Z,3.85
2019-01-27T02:26:11.102Z,3.00
2019-01-27T02:28:41.337Z,4.33
2019-01-27T02:31:11.090Z,3.17
2019-01-27T02:33:41.258Z,3.50
2019-01-27T02:36:11.067Z,2.77
2019-01-27T02:38:40.743Z,3.00
2019-01-27T02:41:10.392Z,4.20
2019-01-27T02:43:40.277Z,3.03
2019-01-27T02:46:10.164Z,3.40
2019-01-27T02:48:40.385Z,2.90
2019-01-27T02:51:10.170Z,2.83
2019-01-27T02:53:40.230Z,2.72
2019-01-27T02:56:10.082Z,2.57
2019-01-27T02:58:40.228Z,2.90
2019-01-27T03:01:10.118Z,3.07
2019-01-27T03:03:40.237Z,2.93
2019-01-27T03:06:14.520Z,2.60
2019-01-27T03:08:44.889Z,2.03
2019-01-27T03:11:14.541Z,2.13
2019-01-27T03:13:44.275Z,3.07
2019-01-27T03:16:14.402Z,2.60
2019-01-27T03:18:44.318Z,3.20
2019-01-27T03:21:14.141Z,2.10
2019-01-27T03:23:44.201Z,4.20
2019-01-27T03:26:14.114Z,1.70
2019-01-27T03:28:43.797Z,2.40
2019-01-27T03:31:13.466Z,1.93
2019-01-27T03:33:43.261Z,1.43
2019-01-27T03:36:13.117Z,4.27
2019-01-27T03:38:42.822Z,3.10
2019-01-27T03:41:12.573Z,1.77
2019-01-27T03:43:42.333Z,3.10
2019-01-27T03:46:12.193Z,1.60
2019-01-27T03:48:41.880Z,1.63
2019-01-27T03:51:11.619Z,1.50
2019-01-27T03:53:41.393Z,1.97
2019-01-27T03:56:11.251Z,1.73
2019-01-27T03:58:41.311Z,1.80
2019-01-27T04:01:11.191Z,2.07
2019-01-27T04:03:41.265Z,1.72
2019-01-27T04:06:11.146Z,1.53
2019-01-27T04:08:41.314Z,2.20
2019-01-27T04:11:11.244Z,1.90
2019-01-27T04:13:40.997Z,1.33
2019-01-27T04:16:10.660Z,1.47
2019-01-27T04:18:40.435Z,1.23
2019-01-27T04:21:10.321Z,1.30
2019-01-27T04:23:40.410Z,1.90
2019-01-27T04:26:10.334Z,2.00
2019-01-27T04:28:40.399Z,1.10
2019-01-27T04:31:10.268Z,1.40
2019-01-27T04:33:40.308Z,1.25
2019-01-27T04:36:10.248Z,1.30
2019-01-27T04:38:40.406Z,1.17
2019-01-27T04:41:10.335Z,1.73
2019-01-27T04:43:40.402Z,1.95
2019-01-27T04:46:10.285Z,1.33
2019-01-27T04:48:40.307Z,1.27
2019-01-27T04:51:10.289Z,1.70
2019-01-27T04:53:39.996Z,2.73
2019-01-27T04:56:09.855Z,1.70
2019-01-27T04:58:39.531Z,2.03
2019-01-27T05:01:09.344Z,1.50
2019-01-27T05:03:40.796Z,1.57
2019-01-27T05:06:10.547Z,1.83
2019-01-27T05:08:40.429Z,2.00
2019-01-27T05:11:10.345Z,2.07
2019-01-27T05:13:40.553Z,2.75
2019-01-27T05:16:10.390Z,1.97
2019-01-27T05:18:40.503Z,3.07
2019-01-27T05:21:10.397Z,2.17
2019-01-27T05:23:40.608Z,1.80
2019-01-27T05:26:10.701Z,2.17
2019-01-27T05:28:40.549Z,1.73
2019-01-27T05:31:10.365Z,2.30
2019-01-27T05:33:40.566Z,1.80
2019-01-27T05:36:10.394Z,1.77
2019-01-27T05:38:40.585Z,2.35
2019-01-27T05:41:10.449Z,2.07
2019-01-27T05:43:40.639Z,1.70
2019-01-27T05:46:10.474Z,1.43
2019-01-27T05:48:40.255Z,1.37
2019-01-27T05:51:10.046Z,1.63
2019-01-27T05:53:39.635Z,1.33
2019-01-27T05:56:09.378Z,1.97
2019-01-27T05:58:39.378Z,1.72
2019-01-27T06:01:09.080Z,3.23
2019-01-27T06:03:38.736Z,1.57
2019-01-27T06:06:08.402Z,1.93
2019-01-27T06:08:38.666Z,1.60
2019-01-27T06:11:08.496Z,1.70
2019-01-27T06:13:38.470Z,1.67
2019-01-27T06:16:08.408Z,1.50
2019-01-27T06:18:38.084Z,1.23
2019-01-27T06:21:07.789Z,1.67
2019-01-27T06:23:37.582Z,1.40
2019-01-27T06:26:07.436Z,1.37
2019-01-27T06:28:37.095Z,1.30
2019-01-27T06:31:06.776Z,2.30
2019-01-27T06:33:38.216Z,1.47
2019-01-27T06:36:07.893Z,1.20
2019-01-27T06:38:37.673Z,1.00
2019-01-27T06:41:07.488Z,2.33
2019-01-27T06:43:37.681Z,1.45
2019-01-27T06:46:07.521Z,1.90
2019-01-27T06:48:37.704Z,1.30
2019-01-27T06:51:07.553Z,1.40
2019-01-27T06:53:37.580Z,2.47
2019-01-27T06:56:07.575Z,2.27
2019-01-27T06:58:57.266Z,1.17
2019-01-27T07:01:28.600Z,2.30
2019-01-27T07:04:02.805Z,1.83
2019-01-27T07:06:39.818Z,1.30
2019-01-27T07:09:13.688Z,1.37
2019-01-27T07:11:45.285Z,1.33
2019-01-27T07:14:16.501Z,1.40
2019-01-27T07:16:47.750Z,1.07
2019-01-27T07:19:30.954Z,1.83
2019-01-27T07:22:02.338Z,1.90
2019-01-27T07:24:33.628Z,1.00
2019-01-27T07:27:11.281Z,1.27
2019-01-27T07:29:57.298Z,2.00
2019-01-27T07:32:37.383Z,1.37
2019-01-27T07:35:23.662Z,1.43
2019-01-27T07:37:55.163Z,1.33
2019-01-27T07:40:38.294Z,1.77
2019-01-27T07:43:24.516Z,1.13
2019-01-27T07:46:04.594Z,1.10
2019-01-27T07:48:42.115Z,1.57
2019-01-27T07:51:29.525Z,3.33
2019-01-27T07:54:03.660Z,1.97
2019-01-27T07:56:35.316Z,2.50
2019-01-27T07:59:12.457Z,2.00
2019-01-27T08:01:49.854Z,1.20
2019-01-27T08:04:21.281Z,1.27
2019-01-27T08:06:52.509Z,1.73
2019-01-27T08:09:23.768Z,3.80
2019-01-27T08:11:58.005Z,2.07
2019-01-27T08:14:29.388Z,1.07
2019-01-27T08:17:18.706Z,0.90
2019-01-27T08:20:02.007Z,1.30
2019-01-27T08:22:42.329Z,1.80
2019-01-27T08:25:25.837Z,1.40
2019-01-27T08:27:57.158Z,2.53
2019-01-27T08:30:28.586Z,2.07
2019-01-27T08:33:00.218Z,1.80
2019-01-27T08:35:34.346Z,1.13
2019-01-27T08:38:11.414Z,0.80
2019-01-27T08:40:45.356Z,0.80
2019-01-27T08:43:19.425Z,1.20
2019-01-27T08:45:50.673Z,1.17
2019-01-27T08:48:20.704Z,0.70
2019-01-27T08:50:50.407Z,1.30
2019-01-27T08:53:20.053Z,1.80
2019-01-27T08:55:49.742Z,1.27
2019-01-27T08:58:19.462Z,1.63
2019-01-27T09:00:50.710Z,1.60
2019-01-27T09:03:21.941Z,3.03
2019-01-27T09:05:53.347Z,3.50
2019-01-27T09:08:39.532Z,2.10
2019-01-27T09:11:28.821Z,1.80
2019-01-27T09:14:02.678Z,1.10
2019-01-27T09:16:33.942Z,1.53
2019-01-27T09:19:17.388Z,1.10
2019-01-27T09:21:49.423Z,2.10
2019-01-27T09:24:20.652Z,1.37
2019-01-27T09:26:54.386Z,1.83
2019-01-27T09:29:28.166Z,2.13
2019-01-27T09:32:02.061Z,3.23
2019-01-27T09:34:42.461Z,1.47
2019-01-27T09:37:25.542Z,1.37
2019-01-27T09:40:11.720Z,2.60
2019-01-27T09:42:42.985Z,1.13
2019-01-27T09:45:14.454Z,3.67
2019-01-27T09:47:54.853Z,1.90
2019-01-27T09:50:26.433Z,3.77
2019-01-27T09:53:03.819Z,1.13
2019-01-27T09:55:38.164Z,2.60
2019-01-27T09:58:09.485Z,1.47
2019-01-27T10:00:43.268Z,1.40
2019-01-27T10:03:14.535Z,1.67
2019-01-27T10:05:45.852Z,2.10
2019-01-27T10:08:29.195Z,3.33
2019-01-27T10:11:02.869Z,0.77
2019-01-27T10:13:50.772Z,2.25
2019-01-27T10:16:24.581Z,1.30
2019-01-27T10:18:55.829Z,1.07
2019-01-27T10:21:30.673Z,1.97
2019-01-27T10:24:04.358Z,1.17
2019-01-27T10:26:44.447Z,1.43
2019-01-27T10:29:24.317Z,1.40
2019-01-27T10:31:55.551Z,2.80
2019-01-27T10:34:26.731Z,1.20
2019-01-27T10:37:12.277Z,1.10
2019-01-27T10:39:43.064Z,1.00
2019-01-27T10:42:19.957Z,1.70
2019-01-27T10:44:53.949Z,0.90
2019-01-27T10:47:34.402Z,1.27
2019-01-27T10:50:07.419Z,1.67
2019-01-27T10:52:41.530Z,3.97
2019-01-27T10:55:12.922Z,1.30
2019-01-27T10:57:50.474Z,1.20
2019-01-27T11:00:21.739Z,2.43
2019-01-27T11:02:55.413Z,0.80
2019-01-27T11:05:32.360Z,2.13
2019-01-27T11:08:03.812Z,2.00
2019-01-27T11:10:35.564Z,1.53
2019-01-27T11:13:09.349Z,1.20
2019-01-27T11:15:43.228Z,1.87
2019-01-27T11:18:26.581Z,1.30
2019-01-27T11:21:14.536Z,1.00
2019-01-27T11:24:03.857Z,1.40
2019-01-27T11:26:35.085Z,1.57
2019-01-27T11:29:15.466Z,1.30
2019-01-27T11:31:55.877Z,1.10
2019-01-27T11:34:39.795Z,1.80
2019-01-27T11:37:10.949Z,1.00
2019-01-27T11:39:57.562Z,0.90
2019-01-27T11:42:28.845Z,1.10
2019-01-27T11:45:11.500Z,0.80
2019-01-27T11:47:54.374Z,1.03
2019-01-27T11:50:25.692Z,2.90
2019-01-27T11:52:55.658Z,2.97
2019-01-27T11:55:25.390Z,2.00
2019-01-27T11:57:55.036Z,1.63
2019-01-27T12:00:26.652Z,1.70
2019-01-27T12:02:56.300Z,0.70
2019-01-27T12:05:27.228Z,2.25
2019-01-27T12:07:57.051Z,1.07
2019-01-27T12:10:27.183Z,1.93
2019-01-27T12:12:56.961Z,3.60
2019-01-27T12:15:27.326Z,2.12
2019-01-27T12:17:57.576Z,1.00
2019-01-27T12:20:27.391Z,1.60
2019-01-27T12:22:57.076Z,2.20
2019-01-27T12:25:27.251Z,1.17
2019-01-27T12:27:58.641Z,1.97
2019-01-27T12:30:28.333Z,1.20
2019-01-27T12:32:57.995Z,1.27
2019-01-27T12:35:27.671Z,2.40
2019-01-27T12:37:57.313Z,1.43
2019-01-27T12:40:27.427Z,2.50
2019-01-27T12:42:57.077Z,2.70
2019-01-27T12:45:27.217Z,0.87
2019-01-27T12:47:57.090Z,1.47
2019-01-27T12:50:27.485Z,0.60
2019-01-27T12:52:57.131Z,1.07
2019-01-27T12:55:27.407Z,1.50
2019-01-27T12:57:57.140Z,0.83
2019-01-27T13:00:30.413Z,1.80
2019-01-27T13:03:00.046Z,0.97
2019-01-27T13:05:29.679Z,0.63
2019-01-27T13:07:59.345Z,1.83
2019-01-27T13:10:29.274Z,1.00
2019-01-27T13:12:59.052Z,0.77
2019-01-27T13:15:28.660Z,2.83
2019-01-27T13:17:58.377Z,0.70
2019-01-27T13:20:28.256Z,0.83
2019-01-27T13:22:58.050Z,1.33
2019-01-27T13:25:27.660Z,0.57
2019-01-27T13:27:57.304Z,0.73
2019-01-27T13:30:27.494Z,1.00
2019-01-27T13:32:57.348Z,0.97
2019-01-27T13:35:27.396Z,0.93
2019-01-27T13:37:57.290Z,2.20
2019-01-27T13:40:27.432Z,1.00
2019-01-27T13:42:57.155Z,1.20
2019-01-27T13:45:31.920Z,1.70
2019-01-27T13:48:01.717Z,1.17
2019-01-27T13:50:31.513Z,1.00
2019-01-27T13:53:01.243Z,1.07
2019-01-27T13:55:32.105Z,0.90
2019-01-27T13:58:01.857Z,0.80
2019-01-27T14:00:39.439Z,0.47
2019-01-27T14:03:09.199Z,0.60
2019-01-27T14:05:39.336Z,0.33
2019-01-27T14:08:09.250Z,0.63
2019-01-27T14:10:39.244Z,0.60
2019-01-27T14:13:09.170Z,0.70
2019-01-27T14:15:39.729Z,0.27
2019-01-27T14:18:09.437Z,0.47
2019-01-27T14:20:39.317Z,0.50
2019-01-27T14:23:09.363Z,0.67
2019-01-27T14:25:39.371Z,0.37
2019-01-27T14:28:09.233Z,0.87
2019-01-27T14:30:42.114Z,1.75
2019-01-27T14:33:11.793Z,1.50
2019-01-27T14:35:41.478Z,0.83
2019-01-27T14:38:11.258Z,1.13
2019-01-27T14:40:41.238Z,1.22
2019-01-27T14:43:11.198Z,0.30
2019-01-27T14:45:41.428Z,0.30
2019-01-27T14:48:11.236Z,0.60
2019-01-27T14:50:46.337Z,0.30
2019-01-27T14:53:16.307Z,0.53
2019-01-27T14:55:46.285Z,0.83
2019-01-27T14:58:16.219Z,0.87
2019-01-27T15:00:45.876Z,0.57
2019-01-27T15:03:15.543Z,0.63
2019-01-27T15:05:45.456Z,2.47
2019-01-27T15:08:15.309Z,0.80
2019-01-27T15:10:45.331Z,0.50
2019-01-27T15:13:15.213Z,0.70
2019-01-27T15:15:44.954Z,0.43
2019-01-27T15:18:14.648Z,0.73
2019-01-27T15:20:47.357Z,0.77
2019-01-27T15:23:17.218Z,0.47
2019-01-27T15:25:47.274Z,1.50
2019-01-27T15:28:16.866Z,3.43
2019-01-27T15:30:46.655Z,0.60
2019-01-27T15:33:16.315Z,0.67
2019-01-27T15:35:46.376Z,0.60
2019-01-27T15:38:16.351Z,1.03
2019-01-27T15:40:46.286Z,1.20
2019-01-27T15:43:16.284Z,1.17
2019-01-27T15:45:47.921Z,1.10
2019-01-27T15:48:17.700Z,0.83
2019-01-27T15:50:47.388Z,0.83
2019-01-27T15:53:16.974Z,0.87
2019-01-27T15:55:46.650Z,0.70
2019-01-27T15:58:16.315Z,0.80
2019-01-27T16:00:46.294Z,0.80
2019-01-27T16:03:16.252Z,0.50
2019-01-27T16:05:45.997Z,0.40
2019-01-27T16:08:15.770Z,0.50
2019-01-27T16:10:45.528Z,1.33
2019-01-27T16:13:15.371Z,0.50
2019-01-27T16:15:45.421Z,0.50
2019-01-27T16:18:15.329Z,0.30
2019-01-27T16:20:45.572Z,0.72
2019-01-27T16:23:19.668Z,1.43
2019-01-27T16:25:49.425Z,0.70
2019-01-27T16:28:19.017Z,0.30
2019-01-27T16:30:58.743Z,0.80
2019-01-27T16:33:32.658Z,0.60
2019-01-27T16:36:02.506Z,0.67
2019-01-27T16:38:32.373Z,2.40
2019-01-27T16:41:02.066Z,0.50
2019-01-27T16:43:31.722Z,2.50
2019-01-27T16:46:01.427Z,1.30
2019-01-27T16:48:31.018Z,0.53
2019-01-27T16:51:00.801Z,0.57
2019-01-27T16:53:30.709Z,1.33
2019-01-27T16:56:00.536Z,0.83
2019-01-27T16:58:30.605Z,1.00
2019-01-27T17:01:00.458Z,1.03
2019-01-27T17:03:30.635Z,0.60
2019-01-27T17:06:00.482Z,0.93
2019-01-27T17:08:30.650Z,1.00
2019-01-27T17:11:00.456Z,1.37
2019-01-27T17:13:30.673Z,0.50
2019-01-27T17:16:00.568Z,0.70
2019-01-27T17:18:30.510Z,0.70
2019-01-27T17:21:00.487Z,0.83
2019-01-27T17:23:30.084Z,1.13
2019-01-27T17:25:59.767Z,2.67
2019-01-27T17:28:29.906Z,3.57
2019-01-27T17:30:59.637Z,1.80
2019-01-27T17:33:29.569Z,0.73
2019-01-27T17:35:59.468Z,1.53
2019-01-27T17:38:29.723Z,1.45
2019-01-27T17:40:59.482Z,2.33
2019-01-27T17:43:29.750Z,1.72
2019-01-27T17:45:59.639Z,1.70
2019-01-27T17:48:30.828Z,1.47
2019-01-27T17:51:00.622Z,2.13
2019-01-27T17:53:32.147Z,0.97
2019-01-27T17:56:01.797Z,2.10
2019-01-27T17:58:39.001Z,0.97
2019-01-27T18:01:16.089Z,1.67
2019-01-27T18:04:03.286Z,1.67
2019-01-27T18:06:43.467Z,1.10
2019-01-27T18:09:17.489Z,0.87
2019-01-27T18:11:57.354Z,2.40
2019-01-27T18:14:29.460Z,5.05
2019-01-27T18:16:59.126Z,3.93
2019-01-27T18:19:28.883Z,2.33
2019-01-27T18:21:58.606Z,3.33
2019-01-27T18:24:28.590Z,1.20
2019-01-27T18:26:58.251Z,1.50
2019-01-27T18:29:28.014Z,1.43
2019-01-27T18:31:57.833Z,1.83
2019-01-27T18:34:27.901Z,3.93
2019-01-27T18:36:57.620Z,6.90
2019-01-27T18:39:27.778Z,3.20
2019-01-27T18:41:57.593Z,3.03
2019-01-27T18:44:27.964Z,1.57
2019-01-27T18:46:57.653Z,1.67
2019-01-27T18:49:27.929Z,4.43
2019-01-27T18:51:57.663Z,1.17
2019-01-27T18:54:29.381Z,0.97
2019-01-27T18:57:04.269Z,1.57
2019-01-27T18:59:35.755Z,1.73
2019-01-27T19:02:07.231Z,3.23
2019-01-27T19:04:41.248Z,4.70
2019-01-27T19:07:18.333Z,3.20
2019-01-27T19:09:56.920Z,2.10
2019-01-27T19:12:31.920Z,3.42
2019-01-27T19:15:05.889Z,4.97
2019-01-27T19:17:40.983Z,2.33
2019-01-27T19:20:23.145Z,1.50
2019-01-27T19:23:12.391Z,4.17
2019-01-27T19:25:59.773Z,5.00
2019-01-27T19:28:31.275Z,5.10
2019-01-27T19:31:03.042Z,4.50
2019-01-27T19:33:37.012Z,3.63
2019-01-27T19:36:08.385Z,2.50
2019-01-27T19:38:48.557Z,5.17
2019-01-27T19:41:19.818Z,1.77
2019-01-27T19:44:07.347Z,1.60
2019-01-27T19:46:41.638Z,2.50
2019-01-27T19:49:13.364Z,3.77
2019-01-27T19:52:02.385Z,2.70
2019-01-27T19:54:49.711Z,2.77
2019-01-27T19:57:23.747Z,2.30
2019-01-27T19:59:55.337Z,3.33
2019-01-27T20:02:26.648Z,3.30
2019-01-27T20:04:57.893Z,2.37
2019-01-27T20:07:32.294Z,2.00
2019-01-27T20:10:06.220Z,3.57
2019-01-27T20:12:40.550Z,1.67
2019-01-27T20:15:14.953Z,1.70
2019-01-27T20:18:03.219Z,4.77
2019-01-27T20:20:37.397Z,2.47
2019-01-27T20:23:11.076Z,1.90
2019-01-27T20:25:42.514Z,2.83
2019-01-27T20:28:25.371Z,2.60
2019-01-27T20:30:56.666Z,3.10
2019-01-27T20:33:31.642Z,2.43
2019-01-27T20:36:08.726Z,2.63
2019-01-27T20:38:42.370Z,2.13
2019-01-27T20:41:13.595Z,1.63
2019-01-27T20:43:50.464Z,2.57
2019-01-27T20:46:33.454Z,2.33
2019-01-27T20:49:20.862Z,3.07
2019-01-27T20:51:52.340Z,2.90
2019-01-27T20:54:41.438Z,1.60
2019-01-27T20:57:18.650Z,2.40
2019-01-27T20:59:55.462Z,1.30
2019-01-27T21:02:26.711Z,3.23
2019-01-27T21:05:03.829Z,2.03
2019-01-27T21:07:35.405Z,3.77
2019-01-27T21:10:15.578Z,4.07
2019-01-27T21:12:49.232Z,6.70
2019-01-27T21:15:29.293Z,1.23
2019-01-27T21:18:02.934Z,1.53
2019-01-27T21:20:32.993Z,1.60
2019-01-27T21:23:02.888Z,2.03
2019-01-27T21:25:33.129Z,1.77
2019-01-27T21:28:02.902Z,1.83
2019-01-27T21:30:33.147Z,2.77
2019-01-27T21:33:02.920Z,3.47
2019-01-27T21:35:32.932Z,1.65
2019-01-27T21:38:02.583Z,3.30
2019-01-27T21:40:35.212Z,1.90
2019-01-27T21:43:05.000Z,2.03
2019-01-27T21:45:35.263Z,2.22
2019-01-27T21:48:05.205Z,2.37
2019-01-27T21:50:35.090Z,1.77
2019-01-27T21:53:04.959Z,2.23
2019-01-27T21:55:35.013Z,1.40
2019-01-27T21:58:04.997Z,3.30
2019-01-27T22:00:34.959Z,1.27
2019-01-27T22:03:05.024Z,1.30
2019-01-27T22:05:34.709Z,1.27
2019-01-27T22:08:04.365Z,1.37
2019-01-27T22:10:34.217Z,1.37
2019-01-27T22:13:04.055Z,1.37
2019-01-27T22:15:34.257Z,1.00
2019-01-27T22:18:04.237Z,2.07
2019-01-27T22:20:34.235Z,1.27
2019-01-27T22:23:04.037Z,0.97
2019-01-27T22:25:34.379Z,0.80
2019-01-27T22:28:04.087Z,1.10
2019-01-27T22:30:34.532Z,1.05
2019-01-27T22:33:04.202Z,1.57
2019-01-27T22:35:34.178Z,0.90
2019-01-27T22:38:04.142Z,0.70
2019-01-27T22:40:34.119Z,0.70
2019-01-27T22:43:04.211Z,0.60
2019-01-27T22:45:34.138Z,1.10
2019-01-27T22:48:04.059Z,1.40
2019-01-27T22:50:33.714Z,0.50
2019-01-27T22:53:03.496Z,1.13
2019-01-27T22:55:33.267Z,0.50
2019-01-27T22:58:03.197Z,1.23
2019-01-27T23:00:40.075Z,1.17
2019-01-27T23:03:09.757Z,1.23
2019-01-27T23:05:39.418Z,0.37
2019-01-27T23:08:09.351Z,0.40
2019-01-27T23:10:39.267Z,0.40
2019-01-27T23:13:09.245Z,0.53
2019-01-27T23:15:39.174Z,1.32
2019-01-27T23:18:08.861Z,0.40
2019-01-27T23:20:38.518Z,0.40
2019-01-27T23:23:08.234Z,0.47
2019-01-27T23:25:38.268Z,0.50
2019-01-27T23:28:08.179Z,0.40
2019-01-27T23:30:38.366Z,0.57
2019-01-27T23:33:08.214Z,0.50
2019-01-27T23:35:38.306Z,0.60
2019-01-27T23:38:08.434Z,0.50
2019-01-27T23:40:38.352Z,0.50
2019-01-27T23:43:08.160Z,0.47
2019-01-27T23:45:38.218Z,0.62
2019-01-27T23:48:08.204Z,0.60
2019-01-27T23:50:37.797Z,0.90
2019-01-27T23:53:07.582Z,0.40
2019-01-27T23:55:37.331Z,0.70
2019-01-27T23:58:07.254Z,0.70
